createdAt,value
2018-05-02T00:00:19.925Z,97.31
2018-05-02T00:01:19.833Z,97.50
2018-05-02T00:02:19.734Z,97.78
2018-05-02T00:03:19.637Z,98.44
2018-05-02T00:04:19.585Z,96.26
2018-05-02T00:05:19.446Z,95.22
2018-05-02T00:06:19.350Z,95.31
2018-05-02T00:07:19.256Z,95.41
2018-05-02T00:08:19.157Z,95.22
2018-05-02T00:09:19.092Z,95.60
2018-05-02T00:10:18.965Z,94.65
2018-05-02T00:11:18.927Z,94.18
2018-05-02T00:12:18.774Z,93.89
2018-05-02T00:13:18.683Z,94.65
2018-05-02T00:14:18.614Z,94.08
2018-05-02T00:15:18.483Z,95.41
2018-05-02T00:16:18.390Z,96.45
2018-05-02T00:17:18.295Z,99.99
2018-05-02T00:18:18.196Z,99.99
2018-05-02T00:19:18.132Z,99.99
2018-05-02T00:20:18.004Z,99.20
2018-05-02T00:21:17.988Z,96.03
2018-05-02T00:22:17.816Z,93.27
2018-05-02T00:23:17.730Z,94.60
2018-05-02T00:24:17.652Z,95.55
2018-05-02T00:25:17.522Z,95.84
2018-05-02T00:26:17.426Z,95.17
2018-05-02T00:27:17.333Z,97.07
2018-05-02T00:28:17.243Z,99.99
2018-05-02T00:29:17.171Z,99.63
2018-05-02T00:30:17.043Z,96.88
2018-05-02T00:31:16.949Z,97.83
2018-05-02T00:32:16.852Z,94.13
2018-05-02T00:33:16.771Z,99.91
2018-05-02T00:34:16.666Z,99.73
2018-05-02T00:35:16.594Z,99.26
2018-05-02T00:36:16.470Z,98.87
2018-05-02T00:37:16.379Z,96.88
2018-05-02T00:38:16.282Z,96.59
2018-05-02T00:39:16.186Z,97.45
2018-05-02T00:40:16.120Z,97.36
2018-05-02T00:41:15.991Z,96.78
2018-05-02T00:42:15.900Z,94.70
2018-05-02T00:43:15.802Z,93.94
2018-05-02T00:44:15.708Z,93.18
2018-05-02T00:45:15.643Z,93.18
2018-05-02T00:46:15.516Z,94.42
2018-05-02T00:47:15.420Z,95.07
2018-05-02T00:48:15.324Z,93.94
2018-05-02T00:49:15.229Z,96.50
2018-05-02T00:50:15.163Z,96.22
2018-05-02T00:51:15.041Z,95.84
2018-05-02T00:52:14.941Z,93.94
2018-05-02T00:53:14.847Z,93.18
2018-05-02T00:54:14.753Z,94.98
2018-05-02T00:55:14.685Z,97.07
2018-05-02T00:56:14.559Z,97.45
2018-05-02T00:57:14.465Z,96.55
2018-05-02T00:58:14.371Z,96.26
2018-05-02T00:59:14.276Z,99.40
2018-05-02T01:00:14.209Z,96.17
2018-05-02T01:01:14.087Z,90.76
2018-05-02T01:02:13.988Z,88.20
2018-05-02T01:03:13.911Z,86.39
2018-05-02T01:04:13.801Z,84.91
2018-05-02T01:05:13.735Z,85.11
2018-05-02T01:06:13.608Z,84.53
2018-05-02T01:07:13.514Z,84.53
2018-05-02T01:08:13.416Z,82.82
2018-05-02T01:09:13.324Z,83.20
2018-05-02T01:10:13.259Z,83.68
2018-05-02T01:11:13.131Z,82.64
2018-05-02T01:12:13.039Z,84.82
2018-05-02T01:13:12.956Z,84.72
2018-05-02T01:14:12.849Z,87.01
2018-05-02T01:15:12.781Z,86.05
2018-05-02T01:16:12.656Z,87.57
2018-05-02T01:17:12.561Z,88.24
2018-05-02T01:18:12.565Z,88.43
2018-05-02T01:19:12.374Z,89.00
2018-05-02T01:20:12.317Z,89.72
2018-05-02T01:21:12.183Z,89.53
2018-05-02T01:22:12.088Z,89.24
2018-05-02T01:23:12.004Z,89.43
2018-05-02T01:24:11.905Z,89.24
2018-05-02T01:25:11.936Z,90.85
2018-05-02T01:26:11.706Z,91.61
2018-05-02T01:27:11.613Z,91.61
2018-05-02T01:28:11.519Z,91.61
2018-05-02T01:29:11.423Z,92.18
2018-05-02T01:30:11.358Z,91.71
2018-05-02T01:31:11.233Z,91.99
2018-05-02T01:32:11.235Z,92.75
2018-05-02T01:33:11.043Z,92.56
2018-05-02T01:34:10.951Z,94.08
2018-05-02T01:35:10.886Z,94.27
2018-05-02T01:36:10.757Z,93.23
2018-05-02T01:37:10.661Z,92.37
2018-05-02T01:38:10.571Z,90.95
2018-05-02T01:39:10.568Z,89.24
2018-05-02T01:40:10.411Z,87.10
2018-05-02T01:41:10.290Z,85.39
2018-05-02T01:42:10.190Z,84.16
2018-05-02T01:43:10.096Z,82.26
2018-05-02T01:44:09.999Z,82.10
2018-05-02T01:45:09.936Z,81.30
2018-05-02T01:46:09.908Z,80.87
2018-05-02T01:47:09.716Z,80.21
2018-05-02T01:48:09.623Z,80.49
2018-05-02T01:49:09.526Z,80.87
2018-05-02T01:50:09.438Z,80.30
2018-05-02T01:51:09.373Z,80.40
2018-05-02T01:52:09.246Z,80.30
2018-05-02T01:53:09.260Z,79.54
2018-05-02T01:54:09.053Z,79.16
2018-05-02T01:55:08.957Z,79.16
2018-05-02T01:56:08.895Z,79.63
2018-05-02T01:57:08.769Z,79.92
2018-05-02T01:58:08.675Z,80.87
2018-05-02T01:59:08.584Z,81.92
2018-05-02T02:00:08.676Z,83.62
2018-05-02T02:01:08.394Z,85.24
2018-05-02T02:02:08.327Z,86.57
2018-05-02T02:03:08.215Z,87.67
2018-05-02T02:04:08.112Z,88.00
2018-05-02T02:05:08.014Z,88.43
2018-05-02T02:06:07.917Z,89.28
2018-05-02T02:07:07.958Z,90.52
2018-05-02T02:08:07.730Z,91.38
2018-05-02T02:09:07.633Z,91.99
2018-05-02T02:10:07.540Z,92.09
2018-05-02T02:11:07.444Z,92.18
2018-05-02T02:12:07.350Z,92.09
2018-05-02T02:13:07.292Z,93.41
2018-05-02T02:14:07.275Z,94.37
2018-05-02T02:15:07.065Z,93.04
2018-05-02T02:16:06.974Z,95.31
2018-05-02T02:17:06.879Z,96.08
2018-05-02T02:18:06.818Z,96.26
2018-05-02T02:19:06.688Z,96.55
2018-05-02T02:20:06.595Z,96.55
2018-05-02T02:21:06.596Z,95.98
2018-05-02T02:22:06.407Z,95.79
2018-05-02T02:23:06.344Z,93.99
2018-05-02T02:24:06.216Z,94.37
2018-05-02T02:25:06.123Z,94.65
2018-05-02T02:26:06.026Z,95.31
2018-05-02T02:27:05.932Z,95.41
2018-05-02T02:28:05.841Z,95.51
2018-05-02T02:29:05.774Z,96.26
2018-05-02T02:30:05.648Z,95.60
2018-05-02T02:31:05.555Z,96.36
2018-05-02T02:32:05.467Z,95.22
2018-05-02T02:33:05.363Z,96.26
2018-05-02T02:34:05.338Z,93.89
2018-05-02T02:35:05.273Z,94.18
2018-05-02T02:36:05.082Z,95.98
2018-05-02T02:37:04.984Z,94.46
2018-05-02T02:38:04.890Z,94.56
2018-05-02T02:39:04.797Z,95.51
2018-05-02T02:40:04.729Z,95.98
2018-05-02T02:41:04.604Z,96.74
2018-05-02T02:42:04.511Z,97.31
2018-05-02T02:43:04.415Z,97.60
2018-05-02T02:44:04.321Z,96.93
2018-05-02T02:45:04.258Z,98.83
2018-05-02T02:46:04.132Z,99.58
2018-05-02T02:47:04.036Z,99.99
2018-05-02T02:48:03.943Z,99.49
2018-05-02T02:49:03.845Z,99.99
2018-05-02T02:50:03.791Z,99.99
2018-05-02T02:51:03.657Z,99.99
2018-05-02T02:52:03.561Z,99.99
2018-05-02T02:53:03.467Z,99.99
2018-05-02T02:54:03.372Z,99.99
2018-05-02T02:55:03.291Z,99.99
2018-05-02T02:56:03.214Z,99.99
2018-05-02T02:57:03.090Z,99.99
2018-05-02T02:58:02.993Z,99.99
2018-05-02T02:59:02.899Z,99.99
2018-05-02T03:00:02.804Z,99.99
2018-05-02T03:01:02.743Z,99.99
2018-05-02T03:02:02.616Z,99.99
2018-05-02T03:03:02.518Z,99.99
2018-05-02T03:04:02.425Z,99.99
2018-05-02T03:05:02.328Z,99.99
2018-05-02T03:06:02.233Z,99.99
2018-05-02T03:07:02.175Z,99.99
2018-05-02T03:08:02.043Z,99.99
2018-05-02T03:09:01.948Z,99.99
2018-05-02T03:10:01.853Z,99.99
2018-05-02T03:11:01.759Z,99.99
2018-05-02T03:12:01.710Z,99.99
2018-05-02T03:13:01.585Z,99.99
2018-05-02T03:14:01.472Z,99.99
2018-05-02T03:15:01.381Z,99.99
2018-05-02T03:16:01.291Z,99.99
2018-05-02T03:17:01.225Z,99.99
2018-05-02T03:18:01.097Z,99.99
2018-05-02T03:19:00.999Z,99.99
2018-05-02T03:20:00.902Z,99.99
2018-05-02T03:21:00.811Z,99.99
2018-05-02T03:22:00.716Z,99.99
2018-05-02T03:23:00.650Z,99.99
2018-05-02T03:24:00.526Z,99.99
2018-05-02T03:25:00.431Z,99.99
2018-05-02T03:26:00.336Z,99.99
2018-05-02T03:27:00.254Z,99.99
2018-05-02T03:28:00.170Z,99.99
2018-05-02T03:29:00.047Z,99.99
2018-05-02T03:29:59.952Z,99.99
2018-05-02T03:30:59.858Z,99.99
2018-05-02T03:31:59.759Z,99.99
2018-05-02T03:32:59.710Z,99.99
2018-05-02T03:33:59.575Z,99.99
2018-05-02T03:34:59.479Z,99.99
2018-05-02T03:35:59.382Z,99.99
2018-05-02T03:36:59.287Z,99.99
2018-05-02T03:37:59.193Z,99.99
2018-05-02T03:38:59.124Z,99.99
2018-05-02T03:39:59.001Z,99.99
2018-05-02T03:40:58.905Z,99.99
2018-05-02T03:41:58.813Z,99.99
2018-05-02T03:42:58.715Z,99.99
2018-05-02T03:43:58.653Z,99.99
2018-05-02T03:44:58.524Z,99.99
2018-05-02T03:45:58.430Z,99.99
2018-05-02T03:46:58.333Z,99.99
2018-05-02T03:47:58.241Z,99.99
2018-05-02T03:48:58.190Z,99.99
2018-05-02T03:49:58.050Z,99.99
2018-05-02T03:50:57.952Z,99.99
2018-05-02T03:51:57.856Z,99.99
2018-05-02T03:52:57.848Z,99.99
2018-05-02T03:53:57.669Z,99.99
2018-05-02T03:54:57.601Z,99.99
2018-05-02T03:55:57.484Z,99.99
2018-05-02T03:56:57.380Z,99.99
2018-05-02T03:57:57.296Z,99.99
2018-05-02T03:58:57.284Z,99.99
2018-05-02T03:59:57.126Z,99.99
2018-05-02T04:00:57.000Z,99.99
2018-05-02T04:01:56.905Z,99.99
2018-05-02T04:02:56.810Z,99.99
2018-05-02T04:03:56.718Z,99.99
2018-05-02T04:04:56.623Z,99.99
2018-05-02T04:05:56.557Z,99.99
2018-05-02T04:06:56.433Z,99.99
2018-05-02T04:07:56.332Z,99.99
2018-05-02T04:08:56.242Z,99.99
2018-05-02T04:09:56.146Z,99.99
2018-05-02T04:10:56.088Z,99.99
2018-05-02T04:11:55.955Z,99.99
2018-05-02T04:12:55.969Z,99.99
2018-05-02T04:13:55.772Z,99.99
2018-05-02T04:14:55.672Z,99.99
2018-05-02T04:15:55.621Z,99.99
2018-05-02T04:16:55.479Z,99.99
2018-05-02T04:17:55.386Z,99.99
2018-05-02T04:18:55.291Z,99.99
2018-05-02T04:19:55.290Z,99.99
2018-05-02T04:20:55.099Z,99.99
2018-05-02T04:21:55.039Z,99.99
2018-05-02T04:22:54.910Z,99.99
2018-05-02T04:23:54.818Z,99.99
2018-05-02T04:24:54.722Z,99.99
2018-05-02T04:25:54.627Z,99.99
2018-05-02T04:26:54.670Z,99.99
2018-05-02T04:27:54.435Z,99.99
2018-05-02T04:28:54.342Z,99.99
2018-05-02T04:29:54.246Z,99.99
2018-05-02T04:30:54.151Z,99.99
2018-05-02T04:31:54.054Z,99.99
2018-05-02T04:32:54.000Z,99.99
2018-05-02T04:33:53.964Z,99.99
2018-05-02T04:34:53.768Z,99.99
2018-05-02T04:35:53.676Z,99.99
2018-05-02T04:36:53.581Z,99.99
2018-05-02T04:37:53.516Z,99.99
2018-05-02T04:38:53.388Z,99.99
2018-05-02T04:39:53.298Z,99.99
2018-05-02T04:40:53.292Z,99.99
2018-05-02T04:41:53.109Z,99.99
2018-05-02T04:42:53.046Z,99.99
2018-05-02T04:43:52.919Z,99.99
2018-05-02T04:44:52.821Z,99.99
2018-05-02T04:45:52.727Z,99.99
2018-05-02T04:46:52.633Z,99.99
2018-05-02T04:47:52.649Z,99.99
2018-05-02T04:48:52.472Z,99.99
2018-05-02T04:49:52.349Z,99.99
2018-05-02T04:50:52.252Z,99.99
2018-05-02T04:51:52.172Z,99.99
2018-05-02T04:52:52.064Z,99.99
2018-05-02T04:53:52.000Z,99.68
2018-05-02T04:54:51.969Z,99.97
2018-05-02T04:55:51.779Z,98.92
2018-05-02T04:56:51.682Z,97.97
2018-05-02T04:57:51.590Z,98.64
2018-05-02T04:58:51.524Z,98.73
2018-05-02T04:59:51.399Z,99.02
2018-05-02T05:00:51.304Z,99.49
2018-05-02T05:01:51.327Z,99.30
2018-05-02T05:02:51.117Z,99.99
2018-05-02T05:03:51.053Z,99.99
2018-05-02T05:04:50.926Z,99.99
2018-05-02T05:05:50.833Z,99.99
2018-05-02T05:06:50.734Z,99.99
2018-05-02T05:07:50.640Z,99.99
2018-05-02T05:08:50.675Z,99.99
2018-05-02T05:09:50.452Z,99.99
2018-05-02T05:10:50.357Z,99.99
2018-05-02T05:11:50.262Z,99.99
2018-05-02T05:12:50.168Z,99.99
2018-05-02T05:13:50.101Z,99.99
2018-05-02T05:14:49.979Z,99.99
2018-05-02T05:15:49.983Z,98.88
2018-05-02T05:16:49.792Z,98.02
2018-05-02T05:17:49.696Z,97.92
2018-05-02T05:18:49.632Z,97.74
2018-05-02T05:19:49.506Z,96.69
2018-05-02T05:20:49.415Z,94.42
2018-05-02T05:21:49.318Z,91.80
2018-05-02T05:22:49.335Z,89.80
2018-05-02T05:23:49.162Z,87.43
2018-05-02T05:24:49.037Z,86.38
2018-05-02T05:25:48.944Z,84.05
2018-05-02T05:26:48.849Z,83.48
2018-05-02T05:27:48.755Z,83.48
2018-05-02T05:28:48.780Z,80.63
2018-05-02T05:29:48.563Z,80.44
2018-05-02T05:30:48.469Z,79.43
2018-05-02T05:31:48.376Z,78.57
2018-05-02T05:32:48.282Z,79.14
2018-05-02T05:33:48.221Z,78.19
2018-05-02T05:34:48.093Z,78.10
2018-05-02T05:35:47.998Z,77.62
2018-05-02T05:36:47.906Z,78.67
2018-05-02T05:37:47.810Z,78.57
2018-05-02T05:38:47.747Z,77.91
2018-05-02T05:39:47.623Z,77.05
2018-05-02T05:40:47.527Z,77.24
2018-05-02T05:41:47.439Z,78.38
2018-05-02T05:42:47.341Z,78.38
2018-05-02T05:43:47.279Z,78.67
2018-05-02T05:44:47.150Z,77.91
2018-05-02T05:45:47.061Z,77.91
2018-05-02T05:46:47.018Z,79.72
2018-05-02T05:47:46.870Z,78.00
2018-05-02T05:48:46.804Z,78.00
2018-05-02T05:49:46.685Z,77.15
2018-05-02T05:50:46.586Z,76.86
2018-05-02T05:51:46.495Z,77.34
2018-05-02T05:52:46.400Z,77.91
2018-05-02T05:53:46.346Z,78.19
2018-05-02T05:54:46.213Z,77.15
2018-05-02T05:55:46.118Z,76.86
2018-05-02T05:56:46.022Z,76.29
2018-05-02T05:57:45.931Z,76.76
2018-05-02T05:58:45.838Z,77.34
2018-05-02T05:59:45.773Z,76.29
2018-05-02T06:00:45.693Z,76.48
2018-05-02T06:01:45.555Z,76.76
2018-05-02T06:02:45.461Z,77.00
2018-05-02T06:03:45.374Z,75.95
2018-05-02T06:04:45.305Z,75.19
2018-05-02T06:05:45.179Z,74.62
2018-05-02T06:06:45.115Z,74.99
2018-05-02T06:07:44.992Z,73.66
2018-05-02T06:08:44.981Z,74.80
2018-05-02T06:09:44.836Z,74.71
2018-05-02T06:10:44.711Z,74.52
2018-05-02T06:11:44.619Z,73.47
2018-05-02T06:12:44.525Z,73.38
2018-05-02T06:13:44.430Z,73.76
2018-05-02T06:14:44.368Z,73.22
2018-05-02T06:15:44.245Z,72.42
2018-05-02T06:16:44.150Z,73.51
2018-05-02T06:17:44.158Z,73.61
2018-05-02T06:18:44.025Z,72.27
2018-05-02T06:19:43.903Z,71.42
2018-05-02T06:20:43.777Z,70.84
2018-05-02T06:21:43.687Z,70.75
2018-05-02T06:22:43.592Z,71.42
2018-05-02T06:23:43.497Z,71.42
2018-05-02T06:24:43.533Z,70.08
2018-05-02T06:25:43.312Z,70.27
2018-05-02T06:26:43.218Z,70.75
2018-05-02T06:27:43.127Z,69.70
2018-05-02T06:28:43.033Z,69.83
2018-05-02T06:29:42.973Z,70.78
2018-05-02T06:30:42.850Z,70.59
2018-05-02T06:31:42.933Z,69.26
2018-05-02T06:32:42.662Z,68.78
2018-05-02T06:33:42.568Z,69.93
2018-05-02T06:34:42.506Z,69.64
2018-05-02T06:35:42.383Z,69.07
2018-05-02T06:36:42.291Z,68.84
2018-05-02T06:37:42.253Z,68.65
2018-05-02T06:38:42.206Z,69.23
2018-05-02T06:39:42.048Z,69.23
2018-05-02T06:40:41.922Z,68.84
2018-05-02T06:41:41.831Z,68.84
2018-05-02T06:42:41.737Z,69.42
2018-05-02T06:43:41.643Z,70.37
2018-05-02T06:44:41.580Z,69.23
2018-05-02T06:45:41.553Z,69.42
2018-05-02T06:46:41.371Z,69.32
2018-05-02T06:47:41.279Z,69.04
2018-05-02T06:48:41.185Z,69.23
2018-05-02T06:49:41.119Z,69.99
2018-05-02T06:50:40.996Z,70.18
2018-05-02T06:51:40.905Z,69.60
2018-05-02T06:52:40.909Z,68.84
2018-05-02T06:53:40.721Z,69.42
2018-05-02T06:54:40.736Z,68.94
2018-05-02T06:55:40.534Z,70.37
2018-05-02T06:56:40.439Z,68.75
2018-05-02T06:57:40.351Z,68.84
2018-05-02T06:58:40.257Z,68.08
2018-05-02T06:59:40.288Z,68.56
2018-05-02T07:00:40.070Z,68.56
2018-05-02T07:01:39.980Z,68.18
2018-05-02T07:02:39.884Z,68.18
2018-05-02T07:03:39.794Z,67.93
2018-05-02T07:04:39.731Z,67.70
2018-05-02T07:05:39.608Z,68.02
2018-05-02T07:06:39.610Z,67.93
2018-05-02T07:07:39.423Z,66.88
2018-05-02T07:08:39.331Z,66.40
2018-05-02T07:09:39.240Z,66.40
2018-05-02T07:10:39.173Z,65.73
2018-05-02T07:11:39.050Z,65.26
2018-05-02T07:12:38.958Z,65.36
2018-05-02T07:13:39.069Z,64.87
2018-05-02T07:14:38.772Z,65.20
2018-05-02T07:15:38.713Z,65.00
2018-05-02T07:16:38.588Z,64.81
2018-05-02T07:17:38.497Z,65.20
2018-05-02T07:18:38.401Z,65.39
2018-05-02T07:19:38.313Z,65.20
2018-05-02T07:20:38.259Z,67.20
2018-05-02T07:21:38.127Z,69.10
2018-05-02T07:22:38.033Z,68.72
2018-05-02T07:23:37.940Z,67.10
2018-05-02T07:24:37.868Z,65.39
2018-05-02T07:25:37.791Z,65.00
2018-05-02T07:26:37.665Z,65.00
2018-05-02T07:27:37.574Z,66.72
2018-05-02T07:28:37.484Z,65.48
2018-05-02T07:29:37.390Z,65.20
2018-05-02T07:30:37.325Z,65.67
2018-05-02T07:31:37.207Z,65.39
2018-05-02T07:32:37.273Z,65.00
2018-05-02T07:33:37.028Z,65.58
2018-05-02T07:34:36.947Z,66.82
2018-05-02T07:35:36.869Z,67.48
2018-05-02T07:36:36.747Z,68.63
2018-05-02T07:37:36.654Z,68.18
2018-05-02T07:38:36.563Z,68.95
2018-05-02T07:39:36.473Z,69.04
2018-05-02T07:40:36.412Z,67.14
2018-05-02T07:41:36.292Z,67.52
2018-05-02T07:42:36.199Z,68.18
2018-05-02T07:43:36.108Z,67.90
2018-05-02T07:44:36.016Z,69.04
2018-05-02T07:45:35.954Z,68.57
2018-05-02T07:46:35.834Z,68.95
2018-05-02T07:47:35.743Z,68.66
2018-05-02T07:48:35.706Z,69.04
2018-05-02T07:49:35.560Z,67.61
2018-05-02T07:50:35.499Z,66.94
2018-05-02T07:51:35.381Z,67.14
2018-05-02T07:52:35.287Z,67.80
2018-05-02T07:53:35.199Z,67.42
2018-05-02T07:54:35.104Z,67.90
2018-05-02T07:55:35.045Z,67.42
2018-05-02T07:56:35.015Z,67.83
2018-05-02T07:57:34.833Z,68.70
2018-05-02T07:58:34.742Z,69.65
2018-05-02T07:59:34.653Z,68.70
2018-05-02T08:00:34.592Z,67.71
2018-05-02T08:01:34.470Z,67.46
2018-05-02T08:02:34.381Z,68.28
2018-05-02T08:03:34.292Z,68.66
2018-05-02T08:04:34.198Z,68.47
2018-05-02T08:05:34.141Z,68.22
2018-05-02T08:06:34.014Z,68.66
2018-05-02T08:07:33.923Z,69.08
2018-05-02T08:08:33.840Z,69.27
2018-05-02T08:09:33.746Z,70.22
2018-05-02T08:10:33.685Z,69.65
2018-05-02T08:11:33.563Z,69.08
2018-05-02T08:12:33.473Z,68.79
2018-05-02T08:13:33.384Z,68.88
2018-05-02T08:14:33.340Z,68.03
2018-05-02T08:15:33.345Z,68.70
2018-05-02T08:16:33.147Z,67.87
2018-05-02T08:17:33.024Z,67.11
2018-05-02T08:18:32.931Z,67.97
2018-05-02T08:19:32.842Z,68.92
2018-05-02T08:20:32.782Z,67.30
2018-05-02T08:21:32.673Z,65.96
2018-05-02T08:22:32.665Z,66.82
2018-05-02T08:23:32.480Z,67.11
2018-05-02T08:24:32.392Z,66.82
2018-05-02T08:25:32.306Z,67.49
2018-05-02T08:26:32.244Z,67.49
2018-05-02T08:27:32.124Z,68.44
2018-05-02T08:28:32.035Z,69.49
2018-05-02T08:29:32.037Z,69.97
2018-05-02T08:30:31.854Z,69.40
2018-05-02T08:31:31.797Z,69.68
2018-05-02T08:32:31.674Z,69.21
2018-05-02T08:33:31.589Z,68.54
2018-05-02T08:34:31.496Z,68.35
2018-05-02T08:35:31.407Z,69.68
2018-05-02T08:36:31.459Z,69.68
2018-05-02T08:37:31.224Z,69.43
2018-05-02T08:38:31.137Z,69.15
2018-05-02T08:39:31.049Z,68.86
2018-05-02T08:40:30.957Z,67.33
2018-05-02T08:41:30.901Z,68.10
2018-05-02T08:42:30.778Z,67.91
2018-05-02T08:43:30.787Z,68.10
2018-05-02T08:44:30.600Z,66.28
2018-05-02T08:45:30.513Z,66.28
2018-05-02T08:46:30.451Z,66.28
2018-05-02T08:47:30.350Z,65.64
2018-05-02T08:48:30.243Z,65.26
2018-05-02T08:49:30.153Z,65.55
2018-05-02T08:50:30.161Z,65.55
2018-05-02T08:51:30.009Z,66.41
2018-05-02T08:52:29.888Z,65.45
2018-05-02T08:53:29.802Z,65.20
2018-05-02T08:54:29.707Z,64.72
2018-05-02T08:55:29.617Z,63.86
2018-05-02T08:56:29.560Z,63.60
2018-05-02T08:57:29.599Z,62.94
2018-05-02T08:58:29.353Z,62.84
2018-05-02T08:59:29.265Z,62.94
2018-05-02T09:00:29.177Z,63.70
2018-05-02T09:01:29.122Z,64.37
2018-05-02T09:02:28.999Z,63.26
2018-05-02T09:03:28.913Z,62.74
2018-05-02T09:04:28.922Z,63.70
2018-05-02T09:05:28.735Z,63.45
2018-05-02T09:06:28.681Z,63.26
2018-05-02T09:07:28.559Z,62.11
2018-05-02T09:08:28.472Z,62.20
2018-05-02T09:09:28.384Z,62.77
2018-05-02T09:10:28.300Z,62.87
2018-05-02T09:11:28.239Z,64.31
2018-05-02T09:12:28.125Z,64.79
2018-05-02T09:13:28.034Z,62.77
2018-05-02T09:14:27.948Z,62.77
2018-05-02T09:15:27.873Z,61.94
2018-05-02T09:16:27.810Z,61.47
2018-05-02T09:17:27.685Z,61.76
2018-05-02T09:18:27.601Z,61.37
2018-05-02T09:19:27.510Z,61.31
2018-05-02T09:20:27.422Z,59.68
2018-05-02T09:21:27.369Z,57.86
2018-05-02T09:22:27.251Z,58.44
2018-05-02T09:23:27.164Z,58.44
2018-05-02T09:24:27.075Z,58.81
2018-05-02T09:25:26.991Z,58.08
2018-05-02T09:26:26.932Z,57.70
2018-05-02T09:27:26.814Z,58.27
2018-05-02T09:28:26.729Z,56.74
2018-05-02T09:29:26.641Z,57.15
2018-05-02T09:30:26.556Z,57.31
2018-05-02T09:31:26.501Z,55.78
2018-05-02T09:32:26.381Z,55.21
2018-05-02T09:33:26.296Z,56.93
2018-05-02T09:34:26.210Z,56.93
2018-05-02T09:35:26.128Z,58.30
2018-05-02T09:36:26.099Z,57.53
2018-05-02T09:37:25.955Z,56.00
2018-05-02T09:38:25.866Z,55.83
2018-05-02T09:39:25.780Z,57.18
2018-05-02T09:40:25.695Z,55.90
2018-05-02T09:41:25.612Z,56.19
2018-05-02T09:42:25.555Z,55.07
2018-05-02T09:43:25.438Z,55.74
2018-05-02T09:44:25.355Z,54.97
2018-05-02T09:45:25.268Z,53.97
2018-05-02T09:46:25.185Z,52.17
2018-05-02T09:47:25.128Z,51.43
2018-05-02T09:48:25.021Z,51.59
2018-05-02T09:49:24.951Z,51.50
2018-05-02T09:50:24.842Z,52.55
2018-05-02T09:51:24.757Z,51.28
2018-05-02T09:52:24.714Z,54.16
2018-05-02T09:53:24.588Z,53.32
2018-05-02T09:54:24.502Z,53.20
2018-05-02T09:55:24.420Z,54.90
2018-05-02T09:56:24.335Z,54.61
2018-05-02T09:57:24.284Z,54.86
2018-05-02T09:58:24.164Z,54.47
2018-05-02T09:59:24.080Z,52.94
2018-05-02T10:00:24.002Z,53.30
2018-05-02T10:01:23.913Z,53.52
2018-05-02T10:02:23.925Z,53.61
2018-05-02T10:03:23.761Z,55.05
2018-05-02T10:04:23.695Z,53.03
2018-05-02T10:05:23.579Z,53.36
2018-05-02T10:06:23.493Z,52.65
2018-05-02T10:07:23.631Z,52.20
2018-05-02T10:08:23.326Z,52.39
2018-05-02T10:09:23.239Z,52.32
2018-05-02T10:10:23.159Z,53.31
2018-05-02T10:11:23.077Z,49.55
2018-05-02T10:12:23.061Z,51.70
2018-05-02T10:13:22.908Z,49.77
2018-05-02T10:14:22.828Z,49.84
2018-05-02T10:15:22.741Z,49.48
2018-05-02T10:16:22.659Z,48.64
2018-05-02T10:17:22.607Z,49.22
2018-05-02T10:18:22.503Z,47.05
2018-05-02T10:19:22.411Z,46.95
2018-05-02T10:20:22.327Z,48.28
2018-05-02T10:21:22.246Z,49.68
2018-05-02T10:22:22.193Z,49.05
2018-05-02T10:23:22.080Z,49.05
2018-05-02T10:24:22.005Z,49.02
2018-05-02T10:25:21.916Z,48.81
2018-05-02T10:26:21.873Z,48.33
2018-05-02T10:27:21.784Z,49.10
2018-05-02T10:28:21.764Z,52.54
2018-05-02T10:29:21.591Z,50.35
2018-05-02T10:30:21.507Z,49.60
2018-05-02T10:31:21.431Z,49.58
2018-05-02T10:32:21.380Z,49.00
2018-05-02T10:33:21.265Z,50.30
2018-05-02T10:34:21.183Z,51.74
2018-05-02T10:35:21.192Z,53.50
2018-05-02T10:36:21.018Z,52.73
2018-05-02T10:37:20.969Z,53.11
2018-05-02T10:38:20.858Z,53.28
2018-05-02T10:39:20.776Z,52.44
2018-05-02T10:40:20.690Z,53.45
2018-05-02T10:41:20.615Z,54.31
2018-05-02T10:42:20.565Z,53.86
2018-05-02T10:43:20.452Z,53.09
2018-05-02T10:44:20.367Z,53.57
2018-05-02T10:45:20.287Z,53.11
2018-05-02T10:46:20.206Z,50.63
2018-05-02T10:47:20.153Z,50.25
2018-05-02T10:48:20.044Z,50.54
2018-05-02T10:49:20.073Z,50.85
2018-05-02T10:50:19.928Z,50.76
2018-05-02T10:51:19.802Z,50.27
2018-05-02T10:52:19.748Z,50.69
2018-05-02T10:53:19.640Z,51.60
2018-05-02T10:54:19.555Z,51.92
2018-05-02T10:55:19.474Z,50.57
2018-05-02T10:56:19.485Z,50.18
2018-05-02T10:57:19.315Z,49.89
2018-05-02T10:58:19.265Z,52.69
2018-05-02T10:59:19.152Z,51.43
2018-05-02T11:00:19.092Z,50.71
2018-05-02T11:01:18.991Z,49.75
2018-05-02T11:02:18.914Z,49.58
2018-05-02T11:03:18.954Z,50.04
2018-05-02T11:04:18.748Z,50.23
2018-05-02T11:05:18.667Z,47.29
2018-05-02T11:06:18.588Z,46.81
2018-05-02T11:07:18.509Z,46.92
2018-05-02T11:08:18.514Z,46.92
2018-05-02T11:09:18.441Z,47.29
2018-05-02T11:10:18.265Z,48.08
2018-05-02T11:11:18.185Z,50.13
2018-05-02T11:12:18.118Z,51.29
2018-05-02T11:13:18.060Z,50.95
2018-05-02T11:14:17.946Z,50.37
2018-05-02T11:15:17.866Z,49.73
2018-05-02T11:16:17.786Z,47.55
2018-05-02T11:17:17.704Z,47.09
2018-05-02T11:18:17.655Z,46.06
2018-05-02T11:19:17.544Z,45.67
2018-05-02T11:20:17.465Z,48.81
2018-05-02T11:21:17.386Z,49.43
2018-05-02T11:22:17.308Z,51.76
2018-05-02T11:23:17.257Z,53.59
2018-05-02T11:24:17.142Z,53.47
2018-05-02T11:25:17.064Z,55.40
2018-05-02T11:26:16.984Z,54.53
2018-05-02T11:27:16.904Z,54.53
2018-05-02T11:28:16.928Z,53.47
2018-05-02T11:29:16.741Z,53.19
2018-05-02T11:30:16.661Z,55.78
2018-05-02T11:31:16.581Z,52.70
2018-05-02T11:32:16.499Z,52.42
2018-05-02T11:33:16.451Z,54.69
2018-05-02T11:34:16.338Z,54.89
2018-05-02T11:35:16.259Z,56.14
2018-05-02T11:36:16.175Z,56.78
2018-05-02T11:37:16.098Z,55.18
2018-05-02T11:38:16.062Z,55.18
2018-05-02T11:39:15.930Z,55.27
2018-05-02T11:40:15.848Z,55.18
2018-05-02T11:41:15.767Z,56.71
2018-05-02T11:42:15.685Z,55.40
2018-05-02T11:43:15.635Z,56.16
2018-05-02T11:44:15.589Z,55.78
2018-05-02T11:45:15.439Z,54.17
2018-05-02T11:46:15.444Z,53.40
2018-05-02T11:47:15.276Z,53.72
2018-05-02T11:48:15.190Z,53.23
2018-05-02T11:49:15.138Z,51.79
2018-05-02T11:50:15.025Z,51.36
2018-05-02T11:51:14.943Z,50.40
2018-05-02T11:52:14.864Z,51.68
2018-05-02T11:53:14.780Z,49.75
2018-05-02T11:54:14.732Z,51.24
2018-05-02T11:55:14.617Z,52.92
2018-05-02T11:56:14.543Z,53.28
2018-05-02T11:57:14.454Z,54.24
2018-05-02T11:58:14.387Z,55.27
2018-05-02T11:59:14.319Z,55.66
2018-05-02T12:00:14.208Z,55.85
2018-05-02T12:01:14.124Z,56.01
2018-05-02T12:02:14.042Z,56.04
2018-05-02T12:03:14.550Z,55.11
2018-05-02T12:04:13.909Z,55.49
2018-05-02T12:05:13.891Z,55.33
2018-05-02T12:06:13.713Z,55.90
2018-05-02T12:07:13.630Z,54.82
2018-05-02T12:08:13.550Z,54.08
2018-05-02T12:09:13.499Z,53.33
2018-05-02T12:10:13.397Z,54.87
2018-05-02T12:11:13.300Z,54.85
2018-05-02T12:12:13.220Z,57.06
2018-05-02T12:13:13.139Z,55.66
2018-05-02T12:14:13.084Z,57.36
2018-05-02T12:15:12.971Z,58.80
2018-05-02T12:16:12.890Z,59.76
2018-05-02T12:17:12.805Z,61.30
2018-05-02T12:18:12.723Z,61.49
2018-05-02T12:19:12.765Z,59.86
2018-05-02T12:20:12.558Z,58.89
2018-05-02T12:21:12.476Z,59.57
2018-05-02T12:22:12.393Z,60.34
2018-05-02T12:23:12.307Z,58.42
2018-05-02T12:24:12.252Z,58.51
2018-05-02T12:25:12.141Z,58.80
2018-05-02T12:26:12.149Z,59.73
2018-05-02T12:27:11.976Z,60.11
2018-05-02T12:28:11.891Z,60.31
2018-05-02T12:29:11.844Z,59.83
2018-05-02T12:30:11.725Z,60.50
2018-05-02T12:31:11.639Z,59.66
2018-05-02T12:32:11.565Z,59.09
2018-05-02T12:33:11.614Z,58.87
2018-05-02T12:34:11.391Z,59.64
2018-05-02T12:35:11.336Z,59.64
2018-05-02T12:36:11.222Z,59.25
2018-05-02T12:37:11.141Z,59.44
2018-05-02T12:38:11.054Z,59.57
2018-05-02T12:39:10.971Z,59.57
2018-05-02T12:40:11.009Z,58.99
2018-05-02T12:41:10.799Z,58.80
2018-05-02T12:42:10.716Z,59.31
2018-05-02T12:43:10.630Z,58.15
2018-05-02T12:44:10.550Z,58.92
2018-05-02T12:45:10.496Z,59.72
2018-05-02T12:46:10.382Z,56.87
2018-05-02T12:47:10.393Z,57.15
2018-05-02T12:48:10.215Z,57.67
2018-05-02T12:49:10.129Z,57.18
2018-05-02T12:50:10.073Z,56.10
2018-05-02T12:51:10.031Z,56.20